Time;durP1;ratioP1;P1;durP2;ratioP2;P2;SDS_P1;SDS_P2;PMS_P1;PMS_P2;Temp;Humidity;BMP_temperature;BMP_pressure;BME280_temperature;BME280_humidity;BME280_pressure;Samples;Min_cycle;Max_cycle;Signal;HPM_P1;HPM_P2
2022/11/12 00:00:52;;;;;;;136.88;75.07;;;;;;;18.08;65.91;99153.50;4777451;30;20692;-59
2022/11/12 00:03:52;;;;;;;129.93;75.55;;;;;;;18.18;65.36;99148.19;4779109;30;20159;-60
2022/11/12 00:06:59;;;;;;;138.68;75.88;;;;;;;18.32;64.99;99145.09;4779831;30;20055;-59
2022/11/12 00:10:06;;;;;;;128.15;78.50;;;;;;;18.39;64.93;99153.88;4780683;30;20144;-60
2022/11/12 00:13:20;;;;;;;141.52;80.03;;;;;;;18.51;63.42;99159.16;4781041;30;20073;-61
2022/11/12 00:16:28;;;;;;;135.45;79.03;;;;;;;18.69;62.58;99153.41;4763615;30;20241;-60
2022/11/12 00:19:35;;;;;;;134.25;80.05;;;;;;;18.64;62.41;99149.78;4763812;30;20229;-60
2022/11/12 00:22:35;;;;;;;135.93;80.75;;;;;;;18.56;62.26;99149.16;4779262;30;20055;-60
2022/11/12 00:25:43;;;;;;;134.55;78.95;;;;;;;18.59;63.09;99147.84;4781223;29;20066;-60
2022/11/12 00:28:50;;;;;;;140.55;80.28;;;;;;;18.69;62.44;99153.41;4781357;29;20087;-59
2022/11/12 00:31:57;;;;;;;136.07;81.05;;;;;;;18.73;62.17;99156.41;4779652;29;20059;-59
2022/11/12 00:34:57;;;;;;;143.55;79.60;;;;;;;18.80;61.68;99159.75;4781193;30;20062;-60
2022/11/12 00:38:07;;;;;;;146.73;81.13;;;;;;;18.72;61.39;99154.78;4780968;30;20061;-57
2022/11/12 00:41:08;;;;;;;157.48;82.82;;;;;;;18.67;62.03;99160.97;4780142;29;20073;-61
2022/11/12 00:44:15;;;;;;;157.43;83.97;;;;;;;18.44;62.10;99164.81;4780057;30;20632;-60
2022/11/12 00:47:16;;;;;;;150.15;80.63;;;;;;;18.28;63.58;99162.97;4780387;30;20086;-59
2022/11/12 00:50:23;;;;;;;141.65;80.85;;;;;;;18.20;63.33;99161.53;4780473;30;20208;-60
2022/11/12 00:53:23;;;;;;;143.98;80.57;;;;;;;18.19;62.90;99160.72;4779166;30;20058;-60
2022/11/12 00:56:33;;;;;;;149.57;79.35;;;;;;;18.40;62.55;99177.28;4760449;30;20132;-56
2022/11/12 00:59:34;;;;;;;151.55;82.28;;;;;;;18.30;62.33;99166.25;4773574;29;20157;-58
2022/11/12 01:02:42;;;;;;;158.15;80.97;;;;;;;18.26;62.35;99165.13;4778642;30;20581;-58
2022/11/12 01:05:48;;;;;;;155.02;83.18;;;;;;;18.42;62.59;99179.72;4780073;30;20066;-58
2022/11/12 01:08:56;;;;;;;138.40;78.85;;;;;;;18.53;61.03;99182.31;4780799;30;20212;-58
2022/11/12 01:11:57;;;;;;;138.27;78.07;;;;;;;18.48;61.50;99174.09;4779420;29;20056;-58
2022/11/12 01:15:04;;;;;;;141.98;77.72;;;;;;;18.44;60.74;99175.69;4781009;29;20528;-58
2022/11/12 01:18:04;;;;;;;147.20;76.90;;;;;;;18.38;60.64;99184.84;4787232;29;20062;-62
2022/11/12 01:21:13;;;;;;;138.80;76.10;;;;;;;18.34;62.06;99184.53;4756668;30;20062;-60
2022/11/12 01:24:14;;;;;;;131.48;74.68;;;;;;;18.31;62.25;99173.34;4766227;30;20863;-61
2022/11/12 01:27:22;;;;;;;126.70;74.18;;;;;;;18.26;62.76;99189.59;4779566;30;20535;-59
2022/11/12 01:30:29;;;;;;;140.70;76.97;;;;;;;18.16;63.53;99193.00;4772683;30;20066;-61
2022/11/12 01:33:30;;;;;;;127.50;76.00;;;;;;;18.14;63.60;99195.16;4779182;30;20116;-60
2022/11/12 01:36:39;;;;;;;132.48;74.63;;;;;;;18.13;63.58;99188.91;4779813;30;20063;-60
2022/11/12 01:39:39;;;;;;;135.35;76.15;;;;;;;18.15;63.42;99194.91;4779813;30;20159;-60
2022/11/12 01:42:56;;;;;;;143.50;77.28;;;;;;;18.17;63.25;99200.91;4780219;29;20063;-59
2022/11/12 01:45:58;;;;;;;134.18;78.43;;;;;;;18.02;63.93;99206.13;4780207;29;20078;-60
2022/11/12 01:49:11;;;;;;;148.40;78.97;;;;;;;18.02;64.02;99208.00;4780302;29;20070;-61
2022/11/12 01:52:42;;;;;;;142.65;79.65;;;;;;;18.08;63.85;99223.31;4781435;29;20066;-61
2022/11/12 01:55:51;;;;;;;158.15;83.47;;;;;;;18.13;63.53;99226.09;4783252;30;20067;-61
2022/11/12 01:59:06;;;;;;;146.70;79.95;;;;;;;18.15;63.89;99224.78;4783656;30;20073;-61
2022/11/12 02:02:08;;;;;;;139.65;80.80;;;;;;;18.19;64.85;99225.91;4783648;29;20244;-62
2022/11/12 02:05:16;;;;;;;145.68;82.80;;;;;;;18.20;64.37;99230.25;4783242;29;20063;-61
2022/11/12 02:08:18;;;;;;;155.05;83.82;;;;;;;18.29;64.77;99238.00;4783178;29;20070;-62
2022/11/12 02:11:32;;;;;;;153.10;84.28;;;;;;;18.37;64.28;99243.00;4783926;29;20067;-61
2022/11/12 02:14:40;;;;;;;149.32;83.60;;;;;;;18.38;64.16;99250.91;4783050;30;20076;-60
2022/11/12 02:17:47;;;;;;;141.40;84.70;;;;;;;18.45;64.32;99239.81;4764772;30;20102;-60
2022/11/12 02:20:57;;;;;;;165.85;88.40;;;;;;;18.53;64.83;99244.00;4780455;30;20100;-61
2022/11/12 02:24:06;;;;;;;159.50;86.72;;;;;;;18.64;63.98;99248.47;4782032;30;20814;-61
2022/11/12 02:27:08;;;;;;;161.00;85.25;;;;;;;18.68;63.33;99248.78;4781979;30;20066;-61
2022/11/12 02:30:16;;;;;;;159.93;86.05;;;;;;;18.75;63.89;99246.72;4781127;30;20051;-60
2022/11/12 02:33:17;;;;;;;151.32;85.47;;;;;;;18.90;62.77;99265.94;4780154;29;20145;-59
2022/11/12 02:36:25;;;;;;;143.90;81.55;;;;;;;18.94;64.04;99258.91;4780584;30;20088;-59
2022/11/12 02:39:26;;;;;;;139.73;78.80;;;;;;;19.16;62.18;99263.47;4780470;30;20065;-61
2022/11/12 02:42:33;;;;;;;135.32;76.63;;;;;;;19.23;62.89;99261.38;4781533;30;20150;-60
2022/11/12 02:45:40;;;;;;;138.23;76.47;;;;;;;19.39;61.88;99270.50;4778999;30;20088;-60
2022/11/12 02:48:41;;;;;;;136.90;75.32;;;;;;;19.49;62.42;99270.63;4782859;30;20146;-61
2022/11/12 02:51:48;;;;;;;132.45;73.30;;;;;;;19.67;60.88;99276.75;4780989;30;20819;-60
2022/11/12 02:54:55;;;;;;;125.45;71.50;;;;;;;19.87;57.92;99279.66;4780546;30;20428;-60
2022/11/12 02:58:02;;;;;;;130.57;72.43;;;;;;;20.02;60.59;99273.47;4773555;30;20576;-60
2022/11/12 03:01:09;;;;;;;128.57;71.65;;;;;;;20.19;58.96;99267.88;4781463;30;20062;-60
2022/11/12 03:04:10;;;;;;;129.65;69.90;;;;;;;20.31;60.28;99275.84;4780279;29;20062;-60
2022/11/12 03:07:17;;;;;;;132.90;70.68;;;;;;;20.31;59.99;99281.28;4779865;29;20369;-60
2022/11/12 03:10:18;;;;;;;120.20;67.55;;;;;;;20.59;58.40;99281.97;4775100;30;20074;-61
2022/11/12 03:13:31;;;;;;;120.50;68.40;;;;;;;20.89;58.51;99282.13;4781149;30;20138;-60
2022/11/12 03:16:38;;;;;;;122.05;67.25;;;;;;;21.08;56.77;99290.66;4780320;30;20194;-60
2022/11/12 03:19:46;;;;;;;130.80;68.97;;;;;;;21.24;56.53;99294.22;4781215;30;20106;-61
2022/11/12 03:23:05;;;;;;;118.63;63.17;;;;;;;21.51;55.81;99301.38;4776048;30;20063;-60
2022/11/12 03:26:12;;;;;;;102.75;58.08;;;;;;;21.66;54.94;99295.13;4773762;29;20152;-61
2022/11/12 03:29:12;;;;;;;105.50;57.13;;;;;;;21.96;54.49;99299.75;4773706;29;20059;-61
2022/11/12 03:32:19;;;;;;;101.47;56.53;;;;;;;22.21;53.23;99295.34;4773617;29;20058;-60
2022/11/12 03:35:13;;;;;;;100.07;55.22;;;;;;;22.44;53.09;99299.44;4771326;29;20208;-60
2022/11/12 03:38:20;;;;;;;102.22;51.38;;;;;;;22.67;51.06;99306.19;4774376;29;20058;-61
2022/11/12 03:41:20;;;;;;;84.47;49.92;;;;;;;22.99;51.34;99304.97;4774750;30;20136;-60
2022/11/12 03:44:27;;;;;;;91.57;50.67;;;;;;;23.61;49.76;99306.22;4777895;29;20064;-60
2022/11/12 03:47:34;;;;;;;108.32;53.70;;;;;;;23.76;47.50;99310.78;4780142;29;20066;-61
2022/11/12 03:50:34;;;;;;;90.80;51.58;;;;;;;24.20;47.23;99314.53;4756073;30;20067;-60
2022/11/12 03:53:41;;;;;;;90.63;49.08;;;;;;;24.42;44.28;99314.06;4773223;30;20094;-60
2022/11/12 03:56:49;;;;;;;85.03;46.13;;;;;;;24.96;44.74;99323.84;4773680;30;20148;-60
2022/11/12 03:59:49;;;;;;;87.70;45.45;;;;;;;25.64;42.98;99310.00;4757456;30;20058;-60
2022/11/12 04:02:58;;;;;;;82.35;46.80;;;;;;;25.95;45.04;99322.19;4772973;30;20499;-61
2022/11/12 04:09:23;;;;;;;75.15;42.00;;;;;;;27.00;40.54;99328.19;4774827;29;20561;-61
2022/11/12 04:21:49;;;;;;;78.93;41.90;;;;;;;27.32;40.98;99341.03;4766261;29;20063;-61
2022/11/12 04:22:36;;;;;;;55.78;27.08;;;;;;;27.72;39.74;99343.97;4764316;30;20069;-61
2022/11/12 04:32:37;;;;;;;57.38;27.45;;;;;;;27.86;35.77;99339.22;4781385;30;20069;-61
2022/11/12 04:35:38;;;;;;;55.30;29.13;;;;;;;28.30;34.30;99343.09;4780689;30;20059;-61
2022/11/12 04:38:46;;;;;;;55.30;29.25;;;;;;;28.14;33.63;99338.28;4778319;30;20051;-61
2022/11/12 04:45:16;;;;;;;55.97;32.42;;;;;;;28.12;37.37;99342.16;4773844;30;20956;-61
2022/11/12 04:48:18;;;;;;;65.95;39.00;;;;;;;27.92;38.52;99346.25;4778788;30;20139;-61
2022/11/12 04:54:44;;;;;;;101.13;54.28;;;;;;;26.10;36.70;99342.28;4779138;30;20440;-61
2022/11/12 04:57:51;;;;;;;108.10;55.47;;;;;;;27.38;35.39;99338.97;4777938;30;20070;-61
2022/11/12 05:01:00;;;;;;;108.57;55.13;;;;;;;27.57;35.03;99330.53;4780111;30;20078;-61
2022/11/12 05:04:01;;;;;;;103.93;55.55;;;;;;;27.62;36.90;99333.19;4780034;30;20656;-61
2022/11/12 05:07:09;;;;;;;113.85;58.58;;;;;;;27.66;38.05;99336.94;4767746;30;20066;-61
2022/11/12 05:10:10;;;;;;;119.93;61.38;;;;;;;27.63;38.38;99337.56;4777932;30;20062;-61
2022/11/12 05:13:27;;;;;;;95.50;48.58;;;;;;;27.71;36.14;99331.31;4773509;30;20065;-60
2022/11/12 05:16:21;;;;;;;99.47;45.40;;;;;;;27.27;34.71;99333.69;4769060;30;20136;-60
2022/11/12 05:19:28;;;;;;;81.97;45.67;;;;;;;27.83;36.80;99327.97;4759997;30;20072;-60
2022/11/12 05:22:36;;;;;;;99.25;47.15;;;;;;;28.21;38.17;99331.19;4773585;29;20082;-59
2022/11/12 05:25:52;;;;;;;95.30;48.55;;;;;;;28.27;35.81;99327.16;4772996;30;20128;-60
2022/11/12 05:29:00;;;;;;;88.40;44.55;;;;;;;27.82;33.49;99321.66;4771491;30;20190;-58
2022/11/12 05:32:07;;;;;;;62.90;35.03;;;;;;;27.99;34.03;99320.97;4774134;30;20775;-58
2022/11/12 05:35:14;;;;;;;66.97;36.55;;;;;;;28.35;35.69;99325.56;4772249;29;20130;-59
2022/11/12 05:38:22;;;;;;;75.35;39.65;;;;;;;28.10;33.62;99316.00;4771319;30;20665;-58
2022/11/12 05:41:24;;;;;;;71.72;40.88;;;;;;;28.70;35.16;99320.22;4761451;30;20055;-57
2022/11/12 05:44:52;;;;;;;69.82;40.58;;;;;;;28.49;36.48;99318.00;4766100;30;20684;-58
2022/11/12 05:48:01;;;;;;;66.07;40.00;;;;;;;28.86;35.34;99313.09;4765667;30;20103;-59
2022/11/12 05:51:03;;;;;;;88.68;40.33;;;;;;;28.16;34.10;99302.91;4776465;30;20066;-60
2022/11/12 05:54:12;;;;;;;69.63;35.63;;;;;;;28.67;34.06;99301.53;4779324;30;20159;-57
2022/11/12 05:57:19;;;;;;;68.47;36.22;;;;;;;28.78;34.36;99302.06;4769417;30;20495;-61
2022/11/12 06:00:26;;;;;;;71.97;37.08;;;;;;;28.03;31.71;99293.56;4778339;30;20136;-61
2022/11/12 06:03:33;;;;;;;83.10;40.53;;;;;;;28.30;33.06;99287.06;4776481;30;20193;-60
2022/11/12 06:06:36;;;;;;;76.18;37.75;;;;;;;28.25;33.55;99289.97;4771078;30;20060;-60
2022/11/12 06:09:43;;;;;;;59.22;30.23;;;;;;;28.37;33.93;99286.59;4776625;30;20720;-60
2022/11/12 06:12:43;;;;;;;51.78;26.30;;;;;;;27.94;31.26;99285.25;4779293;30;20085;-60
2022/11/12 06:15:53;;;;;;;44.85;24.83;;;;;;;28.15;32.81;99296.56;4785123;29;20067;-60
2022/11/12 06:19:00;;;;;;;49.67;24.42;;;;;;;28.36;35.39;99285.78;4775556;29;20496;-60
2022/11/12 06:22:00;;;;;;;46.50;25.77;;;;;;;28.13;31.65;99285.03;4769476;30;20059;-60
2022/11/12 06:25:07;;;;;;;37.38;22.23;;;;;;;28.46;33.51;99281.94;4755337;30;20191;-60
2022/11/12 06:28:14;;;;;;;37.20;18.63;;;;;;;28.19;29.69;99286.53;4770235;30;20070;-60
2022/11/12 06:31:22;;;;;;;43.25;20.17;;;;;;;28.06;30.41;99288.22;4776308;30;20070;-61
2022/11/12 06:34:29;;;;;;;35.92;19.77;;;;;;;27.95;30.41;99277.78;4775072;30;20063;-66
2022/11/12 06:37:37;;;;;;;38.00;21.65;;;;;;;28.49;30.78;99276.59;4772612;29;20221;-62
2022/11/12 06:40:44;;;;;;;47.78;22.83;;;;;;;28.25;30.02;99263.16;4765669;30;20173;-62
2022/11/12 06:43:52;;;;;;;44.80;22.83;;;;;;;28.59;34.26;99258.13;4774336;29;20133;-62
2022/11/12 06:46:59;;;;;;;48.13;24.65;;;;;;;28.75;32.16;99269.53;4775004;30;20066;-62
2022/11/12 06:50:06;;;;;;;45.75;23.80;;;;;;;28.30;31.30;99265.78;4778796;30;20210;-62
2022/11/12 06:53:06;;;;;;;51.30;24.75;;;;;;;28.33;31.81;99258.81;4774303;30;20503;-62
2022/11/12 06:56:13;;;;;;;48.60;24.73;;;;;;;28.36;31.86;99254.63;4768421;30;20132;-63
2022/11/12 06:59:21;;;;;;;46.75;25.83;;;;;;;28.61;34.04;99264.16;4778156;30;20172;-62
2022/11/12 07:02:22;;;;;;;36.95;19.77;;;;;;;28.81;30.41;99257.19;4777133;29;20070;-63
2022/11/12 07:05:30;;;;;;;32.80;18.15;;;;;;;28.60;31.47;99248.69;4774703;29;20067;-61
2022/11/12 07:08:37;;;;;;;36.33;17.05;;;;;;;28.43;30.32;99246.66;4773893;30;20078;-62
2022/11/12 07:11:50;;;;;;;27.15;13.63;;;;;;;28.66;30.05;99241.88;4771383;30;20614;-62
2022/11/12 07:14:57;;;;;;;35.53;17.98;;;;;;;28.86;31.49;99235.75;4782213;30;20063;-62
2022/11/12 07:18:04;;;;;;;39.17;16.15;;;;;;;29.01;30.80;99245.53;4780660;30;20529;-63
2022/11/12 07:21:15;;;;;;;34.20;16.05;;;;;;;28.64;30.88;99242.22;4766954;30;20545;-63
2022/11/12 07:24:15;;;;;;;25.88;14.98;;;;;;;28.95;32.26;99248.75;4768602;30;20058;-62
2022/11/12 07:27:22;;;;;;;25.00;13.30;;;;;;;28.94;29.60;99239.66;4775701;29;20070;-63
2022/11/12 07:30:23;;;;;;;25.80;11.95;;;;;;;29.12;34.18;99226.69;4772014;29;20206;-61
2022/11/12 07:33:31;;;;;;;34.88;15.23;;;;;;;28.98;31.74;99223.25;4771887;30;20066;-60
2022/11/12 07:36:32;;;;;;;24.83;12.45;;;;;;;28.84;31.50;99223.41;4771410;30;20997;-61
2022/11/12 07:39:40;;;;;;;20.30;12.48;;;;;;;28.99;28.97;99220.16;4769365;30;20213;-62
2022/11/12 07:42:47;;;;;;;26.08;11.65;;;;;;;28.64;28.99;99213.78;4777758;29;20572;-62
2022/11/12 07:45:58;;;;;;;25.40;12.43;;;;;;;28.65;29.87;99213.47;4772891;30;20066;-62
2022/11/12 07:49:01;;;;;;;24.95;11.90;;;;;;;28.61;30.08;99208.91;4780687;29;20189;-62
2022/11/12 07:52:08;;;;;;;23.67;12.63;;;;;;;28.97;32.04;99200.34;4764424;30;20066;-62
2022/11/12 07:55:09;;;;;;;27.33;12.52;;;;;;;29.23;30.27;99197.59;4776264;30;20193;-62
2022/11/12 07:58:16;;;;;;;31.40;12.35;;;;;;;28.62;29.17;99193.97;4775316;30;20066;-64
2022/11/12 08:01:46;;;;;;;25.60;12.95;;;;;;;29.00;31.21;99185.06;4780246;30;20200;-64
2022/11/12 08:04:54;;;;;;;21.67;11.20;;;;;;;28.48;28.97;99180.25;4780094;30;20054;-65
2022/11/12 08:07:55;;;;;;;22.70;11.35;;;;;;;28.37;30.30;99178.94;4762643;29;20053;-65
2022/11/12 08:11:09;;;;;;;19.58;11.60;;;;;;;28.66;30.29;99181.97;4759857;30;20620;-64
2022/11/12 08:14:16;;;;;;;25.40;11.37;;;;;;;28.71;31.34;99169.94;4774124;29;20066;-63
2022/11/12 08:17:24;;;;;;;24.67;11.52;;;;;;;28.74;30.13;99168.47;4778197;30;20298;-64
2022/11/12 08:20:25;;;;;;;24.13;12.82;;;;;;;28.69;29.42;99150.13;4767506;30;20090;-64
2022/11/12 08:23:34;;;;;;;25.83;12.30;;;;;;;28.70;28.95;99152.56;4779816;30;20063;-64
2022/11/12 08:26:35;;;;;;;27.17;12.35;;;;;;;28.31;29.53;99151.47;4780616;30;20059;-64
2022/11/12 08:29:42;;;;;;;29.00;12.48;;;;;;;28.29;29.62;99136.38;4780851;30;20085;-64
2022/11/12 08:32:42;;;;;;;24.08;12.40;;;;;;;28.70;32.39;99124.13;4766560;30;20283;-64
2022/11/12 08:35:49;;;;;;;27.83;11.88;;;;;;;28.37;30.66;99120.97;4778958;30;20047;-65
2022/11/12 08:38:57;;;;;;;27.45;12.50;;;;;;;28.62;31.23;99105.59;4769545;30;20070;-64
2022/11/12 08:41:57;;;;;;;22.08;10.75;;;;;;;28.54;30.25;99107.22;4780360;30;20089;-65
2022/11/12 08:45:04;;;;;;;22.13;11.25;;;;;;;28.33;30.25;99098.72;4764821;29;20095;-64
2022/11/12 08:48:17;;;;;;;22.52;10.82;;;;;;;28.78;30.44;99086.59;4770971;30;20168;-65
2022/11/12 08:51:18;;;;;;;28.55;11.10;;;;;;;28.62;29.78;99078.78;4779252;30;20216;-65
2022/11/12 08:54:25;;;;;;;21.60;11.57;;;;;;;28.38;31.42;99078.44;4778021;30;20067;-65
2022/11/12 08:57:25;;;;;;;24.25;10.52;;;;;;;28.42;30.36;99076.66;4776158;30;20092;-66
2022/11/12 09:00:43;;;;;;;21.65;10.02;;;;;;;28.38;29.68;99067.41;4780342;30;20566;-65
2022/11/12 09:03:43;;;;;;;17.25;8.68;;;;;;;27.92;30.05;99080.63;4773888;30;20099;-65
2022/11/12 09:06:51;;;;;;;21.98;10.13;;;;;;;28.35;29.21;99063.31;4779937;30;20065;-65
2022/11/12 09:09:52;;;;;;;14.50;8.90;;;;;;;28.36;30.11;99059.44;4762227;30;20100;-64
2022/11/12 09:13:06;;;;;;;20.00;10.00;;;;;;;28.16;29.73;99055.34;4765617;30;20069;-65
2022/11/12 09:16:13;;;;;;;20.42;9.80;;;;;;;28.24;32.14;99048.22;4796662;29;20074;-63
2022/11/12 09:19:22;;;;;;;15.15;9.32;;;;;;;28.40;31.05;99054.88;4788903;29;20123;-67
2022/11/12 09:22:22;;;;;;;21.65;9.48;;;;;;;28.31;30.70;99056.81;4749204;30;20056;-64
2022/11/12 09:25:30;;;;;;;19.95;9.60;;;;;;;28.21;30.63;99041.41;4778954;30;20163;-62
2022/11/12 09:28:32;;;;;;;27.75;11.52;;;;;;;28.34;30.71;99039.63;4777101;29;20107;-62
2022/11/12 09:31:39;;;;;;;28.77;12.10;;;;;;;28.25;30.29;99036.03;4776663;30;20077;-62
2022/11/12 09:34:39;;;;;;;29.88;13.27;;;;;;;28.18;30.02;99042.03;4780683;30;20074;-61
2022/11/12 09:37:46;;;;;;;22.50;12.13;;;;;;;28.18;34.36;99036.50;4778881;30;20070;-62
2022/11/12 09:41:10;;;;;;;21.63;12.68;;;;;;;27.86;32.46;99032.22;4773578;29;20070;-61
2022/11/12 09:44:23;;;;;;;22.98;12.38;;;;;;;27.64;32.03;99033.94;4774889;29;20063;-62
2022/11/12 09:47:42;;;;;;;22.08;11.93;;;;;;;28.06;33.29;99022.56;4777428;30;20073;-61
2022/11/12 09:50:57;;;;;;;20.77;11.95;;;;;;;28.06;34.21;99033.59;4771701;30;20164;-60
2022/11/12 09:54:24;;;;;;;27.63;12.93;;;;;;;28.15;32.48;99025.34;4775897;29;20781;-60
2022/11/12 09:57:25;;;;;;;26.75;11.98;;;;;;;28.11;33.01;99019.66;4771183;29;20209;-62
2022/11/12 10:00:33;;;;;;;24.25;11.80;;;;;;;28.10;31.62;99018.81;4778148;30;20132;-60
2022/11/12 10:03:45;;;;;;;24.77;12.18;;;;;;;28.05;33.42;99018.16;4779094;30;20066;-60
2022/11/12 10:06:59;;;;;;;21.75;12.65;;;;;;;28.02;31.42;99008.59;4778870;30;20082;-60
2022/11/12 10:10:19;;;;;;;19.40;12.00;;;;;;;27.97;33.53;99010.69;4778009;30;20073;-60
2022/11/12 10:13:59;;;;;;;26.58;12.07;;;;;;;27.94;32.31;99008.59;4780383;29;20062;-60
2022/11/12 10:17:48;;;;;;;30.33;13.13;;;;;;;27.76;34.84;99013.22;4781398;30;20077;-61
2022/11/12 10:21:14;;;;;;;17.42;12.02;;;;;;;27.82;34.12;99018.28;4781487;30;20476;-61
2022/11/12 10:24:23;;;;;;;26.30;12.00;;;;;;;27.77;34.71;99014.84;4780983;29;20527;-59
2022/11/12 10:27:38;;;;;;;23.48;12.30;;;;;;;27.78;33.90;99019.22;4779242;30;20109;-61
2022/11/12 10:30:46;;;;;;;26.08;12.73;;;;;;;27.68;35.59;99014.81;4780441;30;20094;-61
2022/11/12 10:33:47;;;;;;;23.38;12.32;;;;;;;27.56;34.17;99004.41;4781698;30;20055;-61
2022/11/12 10:37:04;;;;;;;26.52;12.48;;;;;;;27.58;35.52;99001.34;4779398;30;20070;-61
2022/11/12 10:40:04;;;;;;;28.85;11.95;;;;;;;27.58;33.81;99001.34;4773118;30;20070;-61
2022/11/12 10:43:29;;;;;;;25.60;13.27;;;;;;;27.56;34.89;98998.91;4779166;30;20058;-61
2022/11/12 10:46:38;;;;;;;32.83;13.68;;;;;;;27.48;34.28;99003.25;4781272;30;20066;-61
2022/11/12 10:49:44;;;;;;;25.02;12.52;;;;;;;27.43;36.09;99005.34;4781332;30;20086;-61
2022/11/12 10:53:05;;;;;;;22.35;11.90;;;;;;;27.40;35.08;99006.78;4780885;30;20073;-61
2022/11/12 10:56:36;;;;;;;22.10;11.00;;;;;;;27.33;35.08;99000.94;4773945;30;20070;-60
2022/11/12 10:59:44;;;;;;;23.55;10.80;;;;;;;27.30;33.44;99002.34;4780022;30;20055;-61
2022/11/12 11:02:53;;;;;;;21.27;11.45;;;;;;;27.18;35.27;99004.88;4781317;30;20062;-62
2022/11/12 11:06:06;;;;;;;18.58;10.30;;;;;;;27.08;36.87;99007.91;4773965;30;20066;-61
2022/11/12 11:09:20;;;;;;;21.55;10.95;;;;;;;26.90;38.58;99007.00;4781294;30;20082;-61
2022/11/12 11:12:27;;;;;;;21.08;10.55;;;;;;;26.61;38.24;99008.28;4778378;30;20929;-62
2022/11/12 11:15:29;;;;;;;32.00;10.88;;;;;;;26.56;40.86;99006.44;4783777;29;20074;-61
2022/11/12 11:18:40;;;;;;;21.88;11.32;;;;;;;26.54;38.25;99002.34;4779989;29;20070;-62
2022/11/12 11:21:54;;;;;;;24.05;10.95;;;;;;;26.40;39.76;98994.16;4781942;30;20084;-62
2022/11/12 11:25:22;;;;;;;17.30;10.52;;;;;;;26.33;39.97;99002.88;4772351;29;20125;-62
2022/11/12 11:29:31;;;;;;;21.65;11.13;;;;;;;26.10;42.05;99003.94;4781095;30;20497;-62
2022/11/12 11:32:47;;;;;;;29.20;12.63;;;;;;;25.77;42.89;99002.13;4679801;30;20151;-61
2022/11/12 11:35:47;;;;;;;25.85;10.77;;;;;;;25.77;44.70;98998.59;4699482;30;20183;-62
2022/11/12 11:39:24;;;;;;;24.60;11.02;;;;;;;25.62;43.28;98999.72;4773943;30;20550;-62
2022/11/12 11:43:11;;;;;;;29.92;11.73;;;;;;;25.59;43.38;99001.16;4775643;30;20522;-61
2022/11/12 11:46:19;;;;;;;33.88;11.48;;;;;;;25.45;44.06;99007.75;4691267;30;20088;-61
2022/11/12 11:49:59;;;;;;;33.63;11.77;;;;;;;25.40;45.62;99015.00;4696378;30;20705;-61
2022/11/12 11:53:24;;;;;;;40.95;15.63;;;;;;;25.18;44.53;99017.59;4778844;30;20062;-61
2022/11/12 11:56:41;;;;;;;64.28;16.48;;;;;;;25.06;44.33;99020.81;4778658;30;20063;-61
2022/11/12 12:00:21;;;;;;;54.47;16.92;;;;;;;24.93;47.14;99027.91;4779379;30;20070;-60
2022/11/12 12:03:49;;;;;;;51.92;15.65;;;;;;;24.71;46.71;99025.81;4780691;30;20147;-61
2022/11/12 12:06:59;;;;;;;52.08;16.30;;;;;;;24.61;46.33;99025.97;4768171;30;20499;-61
2022/11/12 12:10:24;;;;;;;48.05;18.02;;;;;;;24.52;47.42;99025.06;4762825;30;20132;-61
2022/11/12 12:13:59;;;;;;;47.22;17.75;;;;;;;24.42;47.42;99029.53;4762494;30;20060;-61
2022/11/12 12:17:20;;;;;;;44.83;17.60;;;;;;;24.32;47.44;99026.94;4779566;30;20067;-61
2022/11/12 12:20:40;;;;;;;37.20;18.05;;;;;;;24.21;48.11;99040.00;4778515;30;20443;-62
2022/11/12 12:23:52;;;;;;;45.05;18.63;;;;;;;24.11;48.06;99036.56;4780915;30;20166;-60
2022/11/12 12:27:18;;;;;;;48.88;19.13;;;;;;;24.07;48.85;99039.09;4781034;29;20537;-60
2022/11/12 12:30:29;;;;;;;42.90;18.90;;;;;;;23.97;50.81;99050.22;4769112;30;20212;-60
2022/11/12 12:34:01;;;;;;;37.00;17.63;;;;;;;23.83;51.01;99050.13;4762650;30;20051;-60
2022/11/12 12:37:30;;;;;;;37.45;18.52;;;;;;;23.75;50.72;99058.94;4750384;30;20511;-60
2022/11/12 12:40:40;;;;;;;42.97;18.08;;;;;;;23.70;50.32;99061.75;4761424;30;20172;-60
2022/11/12 12:43:56;;;;;;;43.45;18.67;;;;;;;23.61;51.36;99065.13;4775673;30;20458;-60
2022/11/12 12:47:00;;;;;;;60.30;20.92;;;;;;;23.53;53.70;99067.69;4778294;30;20065;-62
2022/11/12 12:50:09;;;;;;;53.28;20.42;;;;;;;23.45;51.51;99074.63;4436082;29;10000149;-61
2022/11/12 12:53:26;;;;;;;40.93;19.50;;;;;;;23.46;52.57;99089.94;4771635;29;20823;-59
2022/11/12 12:56:37;;;;;;;;;;;;;;;23.48;52.72;99082.25;4773471;29;20060;-58
2022/11/12 12:59:45;;;;;;;53.92;18.73;;;;;;;23.28;54.33;99085.22;4770316;30;20421;-59
2022/11/12 13:02:46;;;;;;;59.50;18.80;;;;;;;23.22;53.24;99085.25;4775081;29;20109;-60
2022/11/12 13:06:23;;;;;;;49.00;18.85;;;;;;;23.30;54.01;99089.28;4765823;30;20067;-60
2022/11/12 13:09:23;;;;;;;55.47;21.45;;;;;;;23.20;53.28;99103.91;4768419;29;20073;-59
2022/11/12 13:13:10;;;;;;;42.45;19.95;;;;;;;23.18;53.51;99110.78;4769914;30;20069;-59
2022/11/12 13:16:49;;;;;;;58.88;19.85;;;;;;;23.06;54.00;99111.13;4774537;29;20058;-59
2022/11/12 13:20:00;;;;;;;49.72;19.75;;;;;;;23.02;54.76;99110.03;4772219;30;20095;-60
2022/11/12 13:23:01;;;;;;;45.45;19.90;;;;;;;22.98;55.11;99108.97;4773566;29;20192;-57
2022/11/12 13:26:46;;;;;;;58.53;22.27;;;;;;;22.93;55.03;99109.00;4773559;30;20091;-57
2022/11/12 13:29:47;;;;;;;59.90;25.25;;;;;;;22.76;55.08;99118.47;4756603;30;20488;-59
2022/11/12 13:32:54;;;;;;;54.63;24.35;;;;;;;22.81;55.14;99125.78;4778933;30;20151;-60
2022/11/12 13:36:32;;;;;;;66.80;23.33;;;;;;;22.87;55.82;99122.75;4777462;30;20419;-60
2022/11/12 13:39:41;;;;;;;53.13;27.02;;;;;;;22.68;55.30;99130.00;4775578;30;20074;-59
2022/11/12 13:42:48;;;;;;;65.15;25.42;;;;;;;22.77;54.79;99131.03;4775894;29;20067;-60
2022/11/12 13:46:15;;;;;;;67.22;26.50;;;;;;;22.87;54.25;99139.19;4776200;29;20062;-58
2022/11/12 13:49:22;;;;;;;57.40;26.73;;;;;;;22.70;54.84;99148.84;4777796;30;20206;-60
2022/11/12 13:52:25;;;;;;;70.63;27.15;;;;;;;22.63;55.52;99154.66;4776894;30;20135;-60
2022/11/12 13:55:33;;;;;;;62.55;27.63;;;;;;;22.58;55.75;99160.97;4779846;30;20084;-59
2022/11/12 13:58:42;;;;;;;61.47;26.95;;;;;;;22.53;56.03;99174.69;4775499;30;20070;-60
2022/11/12 14:01:50;;;;;;;65.63;26.17;;;;;;;22.46;57.47;99168.69;4776268;30;20062;-59
2022/11/12 14:04:52;;;;;;;75.05;27.52;;;;;;;22.40;57.31;99189.78;4778313;30;20550;-60
2022/11/12 14:08:08;;;;;;;67.20;26.83;;;;;;;22.46;55.76;99188.66;4777996;30;20094;-60
2022/11/12 14:11:42;;;;;;;59.47;29.05;;;;;;;22.37;56.19;99190.31;4775671;30;20051;-60
2022/11/12 14:15:01;;;;;;;63.23;29.63;;;;;;;22.52;55.73;99191.38;4775849;29;20200;-60
2022/11/12 14:18:09;;;;;;;57.83;28.90;;;;;;;22.42;55.74;99187.56;4778571;30;20074;-60
2022/11/12 14:21:17;;;;;;;76.03;30.55;;;;;;;22.44;54.92;99193.59;4765342;30;20067;-60
2022/11/12 14:24:18;;;;;;;73.10;31.33;;;;;;;22.34;56.43;99184.63;4779814;30;20080;-59
2022/11/12 14:27:30;;;;;;;59.80;28.20;;;;;;;22.28;56.53;99179.16;4779929;30;20096;-60
2022/11/12 14:30:36;;;;;;;67.15;29.42;;;;;;;22.31;57.04;99176.97;4774887;30;20392;-57
2022/11/12 14:33:44;;;;;;;72.53;28.67;;;;;;;22.28;56.76;99170.97;4773017;30;20882;-60
2022/11/12 14:36:54;;;;;;;69.85;29.13;;;;;;;22.14;58.05;99180.00;4771667;30;20170;-56
2022/11/12 14:40:02;;;;;;;85.38;29.45;;;;;;;22.08;58.45;99169.09;4775737;30;20095;-56
2022/11/12 14:43:10;;;;;;;69.75;30.48;;;;;;;22.16;58.09;99172.34;4775496;30;20126;-60
2022/11/12 14:46:45;;;;;;;74.47;29.80;;;;;;;22.03;58.75;99177.31;4781449;29;20196;-60
2022/11/12 14:49:55;;;;;;;65.63;29.92;;;;;;;22.04;58.77;99189.88;4776031;30;20071;-59
2022/11/12 14:53:05;;;;;;;78.67;31.87;;;;;;;22.14;58.25;99191.75;4776400;30;20066;-61